createdAt,value
2018-08-19T00:01:00.984Z,22.04
2018-08-19T00:03:30.894Z,21.90
2018-08-19T00:06:01.083Z,22.11
2018-08-19T00:08:30.653Z,21.99
2018-08-19T00:11:02.819Z,21.90
2018-08-19T00:13:32.713Z,21.83
2018-08-19T00:16:02.705Z,21.80
2018-08-19T00:18:33.263Z,21.80
2018-08-19T00:21:05.593Z,21.80
2018-08-19T00:23:42.601Z,21.83
2018-08-19T00:26:14.883Z,21.81
2018-08-19T00:28:45.380Z,21.80
2018-08-19T00:31:14.846Z,21.76
2018-08-19T00:33:44.289Z,21.71
2018-08-19T00:36:25.627Z,21.69
2018-08-19T00:38:56.017Z,21.65
2018-08-19T00:41:28.894Z,21.71
2018-08-19T00:43:58.414Z,21.66
2018-08-19T00:46:31.400Z,21.68
2018-08-19T00:49:02.232Z,21.67
2018-08-19T00:51:31.687Z,21.68
2018-08-19T00:54:01.850Z,21.76
2018-08-19T00:56:31.269Z,21.77
2018-08-19T00:59:00.996Z,21.74
2018-08-19T01:01:36.601Z,21.75
2018-08-19T01:04:11.657Z,21.69
2018-08-19T01:06:53.562Z,21.60
2018-08-19T01:09:32.039Z,21.61
2018-08-19T01:12:02.324Z,21.72
2018-08-19T01:14:34.750Z,21.80
2018-08-19T01:17:06.801Z,21.80
2018-08-19T01:19:41.700Z,21.74
2018-08-19T01:22:15.395Z,21.82
2018-08-19T01:24:48.848Z,21.80
2018-08-19T01:27:19.391Z,21.73
2018-08-19T01:29:48.917Z,21.70
2018-08-19T01:32:18.694Z,21.67
2018-08-19T01:34:52.193Z,21.69
2018-08-19T01:37:22.145Z,21.61
2018-08-19T01:39:51.865Z,21.58
2018-08-19T01:42:21.369Z,21.54
2018-08-19T01:44:50.849Z,21.52
2018-08-19T01:47:20.284Z,21.53
2018-08-19T01:49:50.508Z,21.54
2018-08-19T01:52:19.914Z,21.52
2018-08-19T01:54:49.439Z,21.52
2018-08-19T01:57:18.869Z,21.53
2018-08-19T01:59:48.347Z,21.50
2018-08-19T02:02:18.240Z,21.40
2018-08-19T02:04:52.924Z,21.27
2018-08-19T02:07:22.442Z,21.28
2018-08-19T02:10:01.238Z,21.26
2018-08-19T02:12:35.806Z,21.30
2018-08-19T02:15:14.508Z,21.17
2018-08-19T02:17:48.410Z,21.12
2018-08-19T02:20:18.641Z,21.01
2018-08-19T02:22:52.196Z,20.89
2018-08-19T02:25:22.419Z,20.83
2018-08-19T02:27:51.854Z,20.82
2018-08-19T02:30:21.269Z,20.74
2018-08-19T02:32:53.231Z,20.73
2018-08-19T02:35:24.112Z,20.71
2018-08-19T02:37:53.651Z,20.72
2018-08-19T02:40:29.547Z,20.62
2018-08-19T02:43:00.155Z,20.59
2018-08-19T02:45:29.677Z,20.49
2018-08-19T02:47:59.890Z,20.49
2018-08-19T02:50:29.389Z,20.41
2018-08-19T02:52:58.822Z,20.31
2018-08-19T02:55:28.239Z,20.28
2018-08-19T02:58:03.102Z,20.25
2018-08-19T03:00:32.625Z,20.15
2018-08-19T03:03:02.141Z,20.08
2018-08-19T03:05:31.617Z,20.06
2018-08-19T03:08:02.415Z,20.02
2018-08-19T03:10:31.842Z,20.02
2018-08-19T03:13:01.302Z,20.03
2018-08-19T03:15:30.781Z,20.06
2018-08-19T03:18:00.489Z,20.16
2018-08-19T03:20:30.191Z,20.24
2018-08-19T03:23:00.285Z,20.30
2018-08-19T03:25:31.822Z,20.29
2018-08-19T03:28:02.730Z,20.26
2018-08-19T03:30:32.164Z,20.24
2018-08-19T03:33:02.095Z,20.24
2018-08-19T03:35:33.447Z,20.25
2018-08-19T03:38:10.043Z,20.23
2018-08-19T03:40:41.088Z,20.18
2018-08-19T03:43:11.959Z,20.17
2018-08-19T03:45:43.868Z,20.16
2018-08-19T03:48:15.743Z,20.15
2018-08-19T03:50:45.914Z,20.10
2018-08-19T03:53:15.498Z,20.10
2018-08-19T03:55:45.835Z,20.09
2018-08-19T03:58:17.561Z,20.08
2018-08-19T04:00:47.006Z,20.10
2018-08-19T04:03:22.803Z,20.09
2018-08-19T04:05:56.144Z,20.09
2018-08-19T04:08:35.343Z,20.05
2018-08-19T04:11:07.881Z,19.94
2018-08-19T04:13:40.070Z,19.90
2018-08-19T04:16:11.129Z,19.80
2018-08-19T04:18:47.789Z,19.75
2018-08-19T04:21:18.676Z,19.74
2018-08-19T04:23:58.891Z,19.75
2018-08-19T04:26:28.743Z,19.76
2018-08-19T04:28:58.200Z,19.83
2018-08-19T04:31:28.129Z,19.91
2018-08-19T04:34:00.052Z,19.99
2018-08-19T04:36:32.779Z,20.06
2018-08-19T04:39:02.225Z,20.10
2018-08-19T04:41:35.028Z,20.13
2018-08-19T04:44:05.573Z,20.12
2018-08-19T04:46:35.926Z,20.20
2018-08-19T04:49:05.686Z,20.29
2018-08-19T04:51:35.121Z,20.36
2018-08-19T04:54:05.612Z,20.51
2018-08-19T04:56:35.001Z,20.60
2018-08-19T04:59:06.573Z,20.72
2018-08-19T05:01:39.539Z,20.91
2018-08-19T05:04:09.699Z,21.07
2018-08-19T05:06:39.317Z,21.22
2018-08-19T05:09:09.070Z,21.29
2018-08-19T05:11:38.554Z,21.39
2018-08-19T05:14:08.067Z,20.88
2018-08-19T05:16:39.006Z,21.54
2018-08-19T05:19:08.462Z,21.59
2018-08-19T05:21:37.977Z,21.63
2018-08-19T05:24:07.464Z,21.72
2018-08-19T05:26:36.926Z,21.81
2018-08-19T05:29:09.979Z,21.88
2018-08-19T05:31:41.491Z,21.95
2018-08-19T05:34:34.676Z,21.98
2018-08-19T05:37:04.663Z,22.09
2018-08-19T05:39:34.157Z,22.17
2018-08-19T05:42:14.366Z,22.31
2018-08-19T05:44:44.909Z,22.38
2018-08-19T05:47:17.215Z,22.54
2018-08-19T05:49:48.658Z,22.61
2018-08-19T05:52:24.547Z,22.70
2018-08-19T05:54:57.374Z,22.75
2018-08-19T05:57:28.571Z,22.88
2018-08-19T06:00:12.646Z,22.99
2018-08-19T06:02:43.930Z,23.14
2018-08-19T06:05:15.530Z,23.23
2018-08-19T06:07:46.132Z,23.38
2018-08-19T06:10:15.562Z,23.53
2018-08-19T06:12:45.014Z,23.70
2018-08-19T06:15:18.417Z,23.75
2018-08-19T06:17:49.694Z,23.84
2018-08-19T06:20:22.448Z,23.88
2018-08-19T06:22:52.564Z,24.00
2018-08-19T06:25:22.668Z,24.30
2018-08-19T06:27:54.253Z,24.33
2018-08-19T06:30:25.131Z,24.38
2018-08-19T06:32:54.667Z,24.44
2018-08-19T06:35:24.935Z,24.54
2018-08-19T06:37:54.327Z,24.66
2018-08-19T06:40:25.127Z,24.67
2018-08-19T06:42:57.372Z,24.80
2018-08-19T06:45:29.657Z,24.87
2018-08-19T06:48:00.154Z,24.90
2018-08-19T06:50:33.506Z,24.95
2018-08-19T06:53:02.999Z,25.10
2018-08-19T06:55:32.692Z,25.15
2018-08-19T06:58:02.733Z,25.20
2018-08-19T07:00:33.517Z,25.27
2018-08-19T07:03:08.565Z,25.29
2018-08-19T07:05:38.128Z,25.28
2018-08-19T07:08:08.558Z,25.32
2018-08-19T07:10:39.158Z,25.31
2018-08-19T07:13:11.958Z,25.30
2018-08-19T07:15:42.539Z,25.34
2018-08-19T07:18:14.023Z,25.42
2018-08-19T07:20:44.259Z,25.49
2018-08-19T07:23:14.178Z,25.56
2018-08-19T07:25:46.306Z,25.74
2018-08-19T07:28:17.465Z,25.77
2018-08-19T07:30:46.872Z,25.87
2018-08-19T07:33:16.404Z,25.98
2018-08-19T07:35:45.834Z,25.22
2018-08-19T07:38:15.317Z,26.01
2018-08-19T07:40:44.901Z,26.14
2018-08-19T07:43:14.346Z,26.25
2018-08-19T07:45:43.753Z,26.29
2018-08-19T07:48:13.202Z,26.40
2018-08-19T07:50:43.291Z,26.41
2018-08-19T07:53:13.435Z,26.48
2018-08-19T07:55:44.296Z,26.81
2018-08-19T07:58:15.608Z,26.80
2018-08-19T08:00:45.308Z,26.90
2018-08-19T08:03:14.754Z,26.93
2018-08-19T08:05:56.272Z,26.96
2018-08-19T08:08:25.621Z,26.97
2018-08-19T08:10:55.111Z,27.03
2018-08-19T08:13:24.676Z,27.17
2018-08-19T08:15:56.297Z,27.27
2018-08-19T08:18:25.925Z,27.35
2018-08-19T08:21:01.663Z,27.34
2018-08-19T08:23:31.613Z,27.37
2018-08-19T08:26:01.084Z,27.54
2018-08-19T08:28:32.732Z,27.66
2018-08-19T08:31:03.583Z,27.69
2018-08-19T08:33:33.495Z,27.63
2018-08-19T08:36:02.901Z,27.66
2018-08-19T08:38:35.136Z,27.79
2018-08-19T08:41:05.943Z,27.97
2018-08-19T08:43:35.478Z,28.13
2018-08-19T08:46:06.475Z,28.44
2018-08-19T08:48:37.172Z,28.64
2018-08-19T08:51:08.309Z,28.70
2018-08-19T08:53:42.309Z,28.76
2018-08-19T08:56:12.183Z,28.77
2018-08-19T08:58:42.096Z,28.63
2018-08-19T09:01:12.274Z,28.53
2018-08-19T09:03:43.698Z,28.41
2018-08-19T09:06:19.166Z,28.57
2018-08-19T09:08:51.278Z,28.64
2018-08-19T09:11:21.593Z,28.69
2018-08-19T09:13:52.295Z,28.75
2018-08-19T09:16:22.290Z,29.03
2018-08-19T09:18:51.700Z,29.28
2018-08-19T09:21:21.190Z,29.18
2018-08-19T09:23:50.657Z,29.02
2018-08-19T09:26:23.299Z,28.99
2018-08-19T09:28:53.115Z,29.06
2018-08-19T09:31:22.798Z,29.35
2018-08-19T09:33:55.856Z,29.50
2018-08-19T09:36:26.028Z,29.61
2018-08-19T09:38:55.650Z,29.65
2018-08-19T09:41:30.582Z,29.94
2018-08-19T09:44:00.627Z,30.10
2018-08-19T09:46:30.950Z,30.32
2018-08-19T09:49:01.524Z,30.26
2018-08-19T09:51:33.724Z,30.29
2018-08-19T09:54:03.796Z,30.31
2018-08-19T09:56:38.658Z,30.51
2018-08-19T09:59:08.511Z,30.75
2018-08-19T10:01:45.900Z,30.93
2018-08-19T10:04:23.391Z,30.73
2018-08-19T10:07:13.443Z,30.69
2018-08-19T10:09:43.762Z,30.72
2018-08-19T10:12:14.749Z,30.83
2018-08-19T10:14:44.257Z,31.57
2018-08-19T10:17:15.727Z,31.96
2018-08-19T10:19:45.143Z,31.86
2018-08-19T10:22:15.206Z,32.09
2018-08-19T10:24:45.073Z,32.38
2018-08-19T10:27:15.740Z,32.81
2018-08-19T10:29:45.726Z,33.12
2018-08-19T10:32:18.386Z,32.95
2018-08-19T10:34:47.803Z,32.44
2018-08-19T10:37:17.317Z,32.72
2018-08-19T10:39:48.952Z,33.00
2018-08-19T10:42:29.780Z,33.14
2018-08-19T10:45:13.833Z,32.50
2018-08-19T10:47:47.560Z,32.25
2018-08-19T10:50:22.804Z,32.35
2018-08-19T10:52:55.414Z,32.77
2018-08-19T10:55:27.156Z,33.32
2018-08-19T10:57:57.466Z,33.62
2018-08-19T11:00:33.217Z,33.93
2018-08-19T11:03:25.042Z,34.16
2018-08-19T11:05:55.790Z,34.06
2018-08-19T11:08:28.493Z,34.23
2018-08-19T11:10:59.836Z,34.68
2018-08-19T11:13:29.304Z,34.95
2018-08-19T11:16:00.164Z,35.14
2018-08-19T11:18:35.001Z,34.88
2018-08-19T11:21:10.619Z,35.04
2018-08-19T11:23:42.058Z,35.41
2018-08-19T11:26:13.397Z,35.58
2018-08-19T11:28:48.631Z,35.42
2018-08-19T11:31:25.786Z,35.43
2018-08-19T11:33:58.147Z,35.46
2018-08-19T11:36:34.344Z,35.47
2018-08-19T11:39:05.876Z,35.55
2018-08-19T11:41:35.784Z,35.66
2018-08-19T11:44:08.940Z,35.34
2018-08-19T11:46:38.699Z,35.30
2018-08-19T11:49:17.553Z,35.54
2018-08-19T11:51:53.948Z,35.71
2018-08-19T11:54:24.404Z,35.68
2018-08-19T11:57:00.106Z,35.60
2018-08-19T11:59:39.051Z,35.42
2018-08-19T12:02:14.071Z,35.30
2018-08-19T12:04:44.022Z,35.15
2018-08-19T12:07:13.525Z,35.28
2018-08-19T12:09:46.574Z,35.29
2018-08-19T12:12:16.063Z,34.96
2018-08-19T12:14:45.520Z,34.42
2018-08-19T12:17:15.527Z,34.38
2018-08-19T12:19:44.944Z,34.45
2018-08-19T12:22:14.353Z,34.17
2018-08-19T12:24:48.965Z,34.00
2018-08-19T12:27:23.302Z,33.66
2018-08-19T12:30:15.905Z,33.87
2018-08-19T12:32:45.769Z,34.46
2018-08-19T12:35:15.892Z,34.71
2018-08-19T12:37:45.317Z,34.87
2018-08-19T12:40:15.521Z,35.10
2018-08-19T12:42:53.896Z,34.45
2018-08-19T12:45:24.214Z,34.51
2018-08-19T12:47:54.331Z,34.58
2018-08-19T12:50:24.693Z,34.82
2018-08-19T12:52:54.749Z,34.59
2018-08-19T12:55:26.261Z,34.53
2018-08-19T12:58:03.316Z,34.21
2018-08-19T13:00:33.132Z,34.21
2018-08-19T13:03:03.277Z,34.32
2018-08-19T13:05:32.804Z,34.30
2018-08-19T13:08:02.293Z,34.48
2018-08-19T13:10:37.586Z,34.56
2018-08-19T13:13:07.010Z,34.74
2018-08-19T13:15:37.030Z,34.79
2018-08-19T13:18:06.677Z,35.00
2018-08-19T13:20:36.762Z,34.89
2018-08-19T13:23:07.087Z,34.66
2018-08-19T13:25:36.725Z,34.56
2018-08-19T13:28:06.145Z,34.31
2018-08-19T13:30:35.587Z,34.51
2018-08-19T13:33:07.584Z,34.72
2018-08-19T13:35:37.093Z,34.82
2018-08-19T13:38:06.557Z,34.79
2018-08-19T13:40:40.235Z,34.66
2018-08-19T13:43:10.515Z,34.71
2018-08-19T13:45:40.845Z,35.14
2018-08-19T13:48:11.806Z,34.96
2018-08-19T13:50:41.972Z,34.85
2018-08-19T13:53:11.595Z,34.95
2018-08-19T13:55:41.163Z,35.04
2018-08-19T13:58:10.645Z,35.14
2018-08-19T14:00:40.130Z,35.00
2018-08-19T14:03:10.011Z,34.83
2018-08-19T14:05:40.017Z,34.24
2018-08-19T14:08:10.270Z,34.31
2018-08-19T14:10:41.446Z,34.65
2018-08-19T14:13:14.498Z,34.73
2018-08-19T14:15:43.894Z,34.68
2018-08-19T14:18:18.277Z,34.72
2018-08-19T14:20:47.654Z,34.78
2018-08-19T14:23:20.569Z,34.77
2018-08-19T14:25:50.778Z,34.74
2018-08-19T14:28:20.201Z,34.76
2018-08-19T14:30:50.296Z,34.81
2018-08-19T14:33:19.966Z,34.67
2018-08-19T14:35:51.997Z,34.53
2018-08-19T14:38:22.938Z,34.59
2018-08-19T14:40:52.483Z,34.63
2018-08-19T14:43:21.883Z,34.70
2018-08-19T14:45:53.297Z,34.74
2018-08-19T14:48:23.850Z,34.76
2018-08-19T14:50:53.356Z,34.78
2018-08-19T14:53:26.820Z,34.74
2018-08-19T14:56:10.288Z,34.64
2018-08-19T14:58:39.810Z,34.47
2018-08-19T15:01:09.353Z,34.42
2018-08-19T15:03:44.130Z,34.41
2018-08-19T15:06:14.081Z,34.33
2018-08-19T15:08:45.401Z,34.36
2018-08-19T15:11:15.585Z,34.37
2018-08-19T15:13:45.021Z,34.33
2018-08-19T15:16:15.262Z,34.18
2018-08-19T15:18:44.657Z,34.24
2018-08-19T15:21:14.071Z,34.12
2018-08-19T15:23:43.478Z,33.99
2018-08-19T15:26:12.893Z,33.94
2018-08-19T15:28:42.386Z,33.98
2018-08-19T15:31:16.086Z,33.93
2018-08-19T15:33:45.515Z,33.82
2018-08-19T15:36:16.141Z,33.76
2018-08-19T15:38:45.738Z,33.76
2018-08-19T15:41:15.690Z,33.78
2018-08-19T15:43:45.110Z,33.76
2018-08-19T15:46:14.595Z,33.61
2018-08-19T15:48:44.189Z,33.36
2018-08-19T15:51:13.673Z,33.40
2018-08-19T15:53:43.039Z,33.23
2018-08-19T15:56:12.893Z,32.84
2018-08-19T15:58:42.459Z,33.26
2018-08-19T16:01:23.093Z,33.19
2018-08-19T16:03:54.549Z,33.18
2018-08-19T16:06:24.037Z,33.14
2018-08-19T16:08:53.456Z,33.13
2018-08-19T16:11:22.864Z,33.10
2018-08-19T16:13:53.376Z,33.15
2018-08-19T16:16:25.186Z,33.05
2018-08-19T16:18:55.790Z,32.85
2018-08-19T16:21:25.836Z,32.83
2018-08-19T16:23:55.273Z,32.72
2018-08-19T16:26:25.030Z,32.89
2018-08-19T16:28:54.492Z,32.78
2018-08-19T16:31:23.921Z,32.69
2018-08-19T16:33:53.455Z,32.68
2018-08-19T16:36:22.997Z,31.62
2018-08-19T16:38:52.485Z,32.71
2018-08-19T16:41:22.413Z,32.59
2018-08-19T16:43:52.689Z,32.50
2018-08-19T16:46:22.130Z,32.44
2018-08-19T16:48:51.778Z,32.39
2018-08-19T16:51:21.692Z,32.40
2018-08-19T16:53:51.096Z,32.41
2018-08-19T16:56:20.542Z,32.46
2018-08-19T16:58:50.006Z,32.45
2018-08-19T17:01:19.578Z,32.39
2018-08-19T17:03:49.106Z,32.40
2018-08-19T17:06:18.494Z,32.35
2018-08-19T17:08:48.046Z,32.28
2018-08-19T17:11:17.576Z,32.27
2018-08-19T17:13:47.025Z,32.28
2018-08-19T17:16:16.493Z,32.25
2018-08-19T17:18:46.581Z,32.24
2018-08-19T17:21:16.077Z,32.20
2018-08-19T17:23:49.109Z,32.12
2018-08-19T17:26:23.731Z,32.10
2018-08-19T17:28:53.534Z,32.06
2018-08-19T17:31:23.020Z,32.03
2018-08-19T17:33:52.470Z,31.98
2018-08-19T17:36:26.992Z,31.96
2018-08-19T17:38:56.611Z,31.89
2018-08-19T17:41:26.292Z,31.87
2018-08-19T17:43:55.716Z,31.80
2018-08-19T17:46:25.817Z,31.71
2018-08-19T17:48:56.360Z,31.65
2018-08-19T17:51:30.573Z,31.59
2018-08-19T17:54:02.432Z,31.54
2018-08-19T17:56:32.407Z,31.46
2018-08-19T17:59:04.969Z,31.33
2018-08-19T18:01:38.692Z,31.28
2018-08-19T18:04:08.836Z,31.20
2018-08-19T18:06:39.546Z,31.08
2018-08-19T18:11:43.872Z,30.94
2018-08-19T18:14:13.944Z,30.87
2018-08-19T18:16:44.430Z,30.77
2018-08-19T18:19:14.064Z,30.71
2018-08-19T18:21:46.339Z,30.50
2018-08-19T18:24:15.973Z,30.55
2018-08-19T18:26:46.611Z,30.49
2018-08-19T18:29:19.868Z,30.40
2018-08-19T18:31:51.757Z,30.32
2018-08-19T18:34:23.765Z,30.26
2018-08-19T18:36:55.113Z,30.20
2018-08-19T18:39:26.201Z,30.10
2018-08-19T18:41:55.947Z,30.02
2018-08-19T18:44:25.398Z,29.85
2018-08-19T18:46:54.803Z,29.70
2018-08-19T18:49:24.258Z,29.59
2018-08-19T18:51:57.783Z,29.48
2018-08-19T18:54:31.818Z,29.41
2018-08-19T18:57:06.661Z,29.32
2018-08-19T18:59:36.457Z,29.25
2018-08-19T19:02:05.971Z,29.16
2018-08-19T19:04:39.593Z,29.07
2018-08-19T19:07:09.045Z,28.97
2018-08-19T19:09:43.729Z,28.84
2018-08-19T19:12:14.369Z,28.72
2018-08-19T19:14:43.932Z,28.64
2018-08-19T19:17:19.070Z,28.58
2018-08-19T19:19:50.818Z,28.49
2018-08-19T19:22:20.206Z,28.41
2018-08-19T19:24:53.781Z,28.37
2018-08-19T19:27:23.235Z,28.36
2018-08-19T19:29:57.919Z,28.33
2018-08-19T19:32:28.437Z,28.31
2018-08-19T19:35:12.700Z,28.33
2018-08-19T19:37:42.213Z,28.17
2018-08-19T19:40:20.660Z,27.98
2018-08-19T19:42:50.935Z,27.84
2018-08-19T19:45:20.397Z,27.70
2018-08-19T19:47:49.897Z,27.60
2018-08-19T19:50:19.445Z,27.53
2018-08-19T19:52:55.077Z,27.56
2018-08-19T19:55:24.713Z,27.55
2018-08-19T19:57:54.260Z,27.53
2018-08-19T20:00:24.121Z,27.54
2018-08-19T20:02:55.521Z,27.53
2018-08-19T20:05:26.255Z,27.48
2018-08-19T20:07:56.438Z,27.49
2018-08-19T20:10:27.904Z,27.51
2018-08-19T20:12:57.521Z,27.39
2018-08-19T20:15:27.690Z,27.35
2018-08-19T20:17:57.507Z,27.18
2018-08-19T20:20:26.947Z,27.17
2018-08-19T20:22:56.704Z,27.07
2018-08-19T20:25:26.848Z,27.10
2018-08-19T20:28:02.518Z,27.11
2018-08-19T20:30:32.065Z,27.07
2018-08-19T20:33:02.471Z,26.98
2018-08-19T20:35:32.300Z,26.86
2018-08-19T20:38:01.903Z,26.64
2018-08-19T20:40:31.727Z,26.48
2018-08-19T20:43:06.344Z,26.41
2018-08-19T20:45:37.103Z,26.31
2018-08-19T20:48:08.411Z,26.27
2018-08-19T20:50:37.915Z,26.35
2018-08-19T20:53:07.438Z,26.28
2018-08-19T20:55:36.892Z,26.17
2018-08-19T20:58:06.766Z,26.12
2018-08-19T21:00:37.235Z,26.14
2018-08-19T21:03:07.942Z,26.29
2018-08-19T21:05:37.983Z,26.33
2018-08-19T21:08:13.242Z,26.36
2018-08-19T21:10:46.437Z,26.38
2018-08-19T21:13:17.147Z,26.38
2018-08-19T21:15:50.027Z,26.38
2018-08-19T21:18:19.877Z,26.37
2018-08-19T21:20:49.649Z,26.34
2018-08-19T21:23:19.120Z,26.19
2018-08-19T21:25:53.828Z,26.14
2018-08-19T21:28:25.420Z,26.03
2018-08-19T21:30:55.979Z,25.88
2018-08-19T21:33:26.092Z,25.76
2018-08-19T21:35:56.564Z,25.61
2018-08-19T21:38:27.517Z,25.51
2018-08-19T21:40:57.828Z,25.57
2018-08-19T21:43:30.196Z,25.51
2018-08-19T21:46:01.141Z,25.49
2018-08-19T21:48:30.616Z,25.49
2018-08-19T21:51:00.599Z,25.44
2018-08-19T21:53:31.064Z,25.32
2018-08-19T21:56:00.693Z,25.24
2018-08-19T21:58:30.605Z,25.12
2018-08-19T22:01:01.676Z,25.08
2018-08-19T22:03:36.459Z,25.10
2018-08-19T22:06:08.837Z,25.12
2018-08-19T22:08:38.290Z,25.09
2018-08-19T22:11:07.808Z,25.12
2018-08-19T22:13:37.626Z,25.26
2018-08-19T22:16:07.633Z,25.12
2018-08-19T22:18:37.088Z,25.10
2018-08-19T22:21:11.841Z,25.11
2018-08-19T22:23:46.210Z,25.12
2018-08-19T22:26:20.764Z,25.14
2018-08-19T22:29:06.653Z,25.14
2018-08-19T22:31:36.114Z,25.08
2018-08-19T22:34:05.740Z,25.04
2018-08-19T22:36:35.118Z,25.12
2018-08-19T22:39:07.532Z,25.16
2018-08-19T22:41:37.090Z,25.03
2018-08-19T22:44:06.900Z,24.92
2018-08-19T22:46:36.455Z,24.85
2018-08-19T22:49:06.329Z,24.66
2018-08-19T22:51:36.696Z,24.49
2018-08-19T22:54:06.464Z,24.39
2018-08-19T22:56:36.428Z,24.33
2018-08-19T22:59:05.913Z,24.33
2018-08-19T23:01:40.856Z,24.34
2018-08-19T23:04:13.649Z,24.38
2018-08-19T23:06:43.234Z,24.43
2018-08-19T23:09:12.634Z,24.46
2018-08-19T23:11:47.954Z,24.47
2018-08-19T23:14:28.432Z,24.32
2018-08-19T23:16:57.852Z,24.23
2018-08-19T23:19:27.248Z,24.15
2018-08-19T23:21:56.648Z,24.08
2018-08-19T23:24:26.152Z,24.11
2018-08-19T23:26:56.122Z,24.11
2018-08-19T23:29:25.503Z,24.10
2018-08-19T23:31:54.953Z,24.18
2018-08-19T23:34:24.344Z,24.29
2018-08-19T23:36:53.915Z,24.31
2018-08-19T23:39:23.300Z,24.26
2018-08-19T23:41:53.024Z,24.21
2018-08-19T23:44:22.368Z,24.11
2018-08-19T23:46:51.775Z,24.08
2018-08-19T23:49:21.154Z,23.97
2018-08-19T23:51:50.550Z,23.88
2018-08-19T23:54:19.980Z,23.91
2018-08-19T23:56:50.438Z,24.04
2018-08-19T23:59:25.156Z,24.11
